createdAt,value
2023-01-17T00:02:25.075Z,3.10
2023-01-17T00:05:11.589Z,3.10
2023-01-17T00:07:57.816Z,3.20
2023-01-17T00:10:28.516Z,3.20
2023-01-17T00:12:59.973Z,3.20
2023-01-17T00:15:31.422Z,3.20
2023-01-17T00:17:59.959Z,3.20
2023-01-17T00:20:49.771Z,3.20
2023-01-17T00:23:42.816Z,3.30
2023-01-17T00:26:15.449Z,3.30
2023-01-17T00:28:44.380Z,3.40
2023-01-17T00:31:15.050Z,3.30
2023-01-17T00:33:43.067Z,3.20
2023-01-17T00:36:11.751Z,3.20
2023-01-17T00:38:40.777Z,3.20
2023-01-17T00:41:12.259Z,3.20
2023-01-17T00:43:58.789Z,3.20
2023-01-17T00:46:45.423Z,3.20
2023-01-17T00:49:32.041Z,3.20
2023-01-17T00:52:19.215Z,3.20
2023-01-17T00:55:05.874Z,3.20
2023-01-17T00:57:52.202Z,3.00
2023-01-17T01:00:38.941Z,2.90
2023-01-17T01:03:30.030Z,2.90
2023-01-17T01:06:16.810Z,3.00
2023-01-17T01:09:02.887Z,3.00
2023-01-17T01:11:49.473Z,3.00
2023-01-17T01:14:35.414Z,2.90
2023-01-17T01:17:21.856Z,3.00
2023-01-17T01:20:07.936Z,2.90
2023-01-17T01:22:54.622Z,2.90
2023-01-17T01:25:40.823Z,2.90
2023-01-17T01:28:32.569Z,2.90
2023-01-17T01:31:22.885Z,2.90
2023-01-17T01:33:52.591Z,3.00
2023-01-17T01:36:20.439Z,3.00
2023-01-17T01:38:48.277Z,3.10
2023-01-17T01:41:16.480Z,3.10
2023-01-17T01:43:55.726Z,3.10
2023-01-17T01:46:41.591Z,3.20
2023-01-17T01:49:21.895Z,3.20
2023-01-17T01:52:01.010Z,3.20
2023-01-17T01:54:36.550Z,3.20
2023-01-17T01:57:08.214Z,3.30
2023-01-17T01:59:44.579Z,3.30
2023-01-17T02:02:12.546Z,3.20
2023-01-17T02:04:40.380Z,3.30
2023-01-17T02:07:16.626Z,3.30
2023-01-17T02:09:45.549Z,3.30
2023-01-17T02:12:13.762Z,3.30
2023-01-17T02:14:42.194Z,3.30
2023-01-17T02:17:16.036Z,3.40
2023-01-17T02:20:19.156Z,3.40
2023-01-17T02:23:11.118Z,3.40
2023-01-17T02:25:48.216Z,3.40
2023-01-17T02:28:37.764Z,3.40
2023-01-17T02:31:42.845Z,3.40
2023-01-17T02:34:19.288Z,3.40
2023-01-17T02:36:57.824Z,3.40
2023-01-17T02:39:34.535Z,3.30
2023-01-17T02:42:10.179Z,3.30
2023-01-17T02:44:42.939Z,3.30
2023-01-17T02:47:27.224Z,3.40
2023-01-17T02:50:18.585Z,3.40
2023-01-17T02:53:06.855Z,3.40
2023-01-17T02:55:59.270Z,3.30
2023-01-17T02:59:06.479Z,3.40
2023-01-17T03:02:21.514Z,3.40
2023-01-17T03:05:01.684Z,3.40
2023-01-17T03:07:31.578Z,3.40
2023-01-17T03:10:03.498Z,3.40
2023-01-17T03:12:35.668Z,3.40
2023-01-17T03:15:04.329Z,3.40
2023-01-17T03:17:33.382Z,3.40
2023-01-17T03:20:01.216Z,3.40
2023-01-17T03:22:28.935Z,3.40
2023-01-17T03:24:58.221Z,3.40
2023-01-17T03:27:25.936Z,3.40
2023-01-17T03:29:53.664Z,3.40
2023-01-17T03:32:21.384Z,3.40
2023-01-17T03:34:49.106Z,3.40
2023-01-17T03:37:16.948Z,3.40
2023-01-17T03:39:44.685Z,3.50
2023-01-17T03:42:12.515Z,3.40
2023-01-17T03:44:40.482Z,3.40
2023-01-17T03:47:11.936Z,3.30
2023-01-17T03:49:40.497Z,3.30
2023-01-17T03:52:08.331Z,3.20
2023-01-17T03:54:36.044Z,3.20
2023-01-17T03:57:03.896Z,3.10
2023-01-17T03:59:34.020Z,3.10
2023-01-17T04:02:02.231Z,3.10
2023-01-17T04:04:30.055Z,3.10
2023-01-17T04:06:57.781Z,3.00
2023-01-17T04:09:25.504Z,2.90
2023-01-17T04:11:53.362Z,2.90
2023-01-17T04:14:21.085Z,2.80
2023-01-17T04:16:48.867Z,2.70
2023-01-17T04:19:17.348Z,2.70
2023-01-17T04:21:45.075Z,2.70
2023-01-17T04:24:12.798Z,2.70
2023-01-17T04:26:40.516Z,2.70
2023-01-17T04:29:08.363Z,2.70
2023-01-17T04:31:36.127Z,2.70
2023-01-17T04:34:03.805Z,2.80
2023-01-17T04:36:32.378Z,2.80
2023-01-17T04:39:00.117Z,2.80
2023-01-17T04:41:27.821Z,2.80
2023-01-17T04:43:55.772Z,2.80
2023-01-17T04:46:23.530Z,2.80
2023-01-17T04:48:51.337Z,2.80
2023-01-17T04:51:19.180Z,2.80
2023-01-17T04:53:47.513Z,2.80
2023-01-17T04:56:15.226Z,2.80
2023-01-17T04:58:42.949Z,2.80
2023-01-17T05:01:10.812Z,2.70
2023-01-17T05:03:38.634Z,2.70
2023-01-17T05:06:06.476Z,2.70
2023-01-17T05:08:34.198Z,2.60
2023-01-17T05:11:01.917Z,2.60
2023-01-17T05:13:29.761Z,2.60
2023-01-17T05:15:58.378Z,2.60
2023-01-17T05:18:26.286Z,2.60
2023-01-17T05:20:54.019Z,2.50
2023-01-17T05:23:21.736Z,2.50
2023-01-17T05:25:49.456Z,2.40
2023-01-17T05:28:17.176Z,2.40
2023-01-17T05:30:44.944Z,2.40
2023-01-17T05:33:12.869Z,2.30
2023-01-17T05:35:40.590Z,2.30
2023-01-17T05:38:08.435Z,2.20
2023-01-17T05:40:36.523Z,2.20
2023-01-17T05:43:05.197Z,2.10
2023-01-17T05:45:33.760Z,2.10
2023-01-17T05:48:02.682Z,2.10
2023-01-17T05:50:37.608Z,2.00
2023-01-17T05:53:12.052Z,2.10
2023-01-17T05:55:40.974Z,2.10
2023-01-17T05:58:19.483Z,2.20
2023-01-17T06:00:47.828Z,2.20
2023-01-17T06:03:16.248Z,2.20
2023-01-17T06:05:44.973Z,2.20
2023-01-17T06:08:13.280Z,2.10
2023-01-17T06:10:41.095Z,2.10
2023-01-17T06:13:12.663Z,2.10
2023-01-17T06:15:41.144Z,2.10
2023-01-17T06:18:14.943Z,2.10
2023-01-17T06:20:43.408Z,2.00
2023-01-17T06:23:13.986Z,2.00
2023-01-17T06:25:44.976Z,1.90
2023-01-17T06:28:15.682Z,1.90
2023-01-17T06:30:44.033Z,1.80
2023-01-17T06:33:13.165Z,1.70
2023-01-17T06:35:47.484Z,1.70
2023-01-17T06:38:15.687Z,1.70
2023-01-17T06:40:43.403Z,1.70
2023-01-17T06:43:11.127Z,1.70
2023-01-17T06:45:38.851Z,1.60
2023-01-17T06:48:07.302Z,1.70
2023-01-17T06:50:35.256Z,1.70
2023-01-17T06:53:07.178Z,1.70
2023-01-17T06:55:37.324Z,1.70
2023-01-17T06:58:05.021Z,1.70
2023-01-17T07:00:35.278Z,1.70
2023-01-17T07:03:03.379Z,1.70
2023-01-17T07:05:31.426Z,1.70
2023-01-17T07:07:59.270Z,1.80
2023-01-17T07:10:27.118Z,1.80
2023-01-17T07:13:00.124Z,1.90
2023-01-17T07:15:27.976Z,1.90
2023-01-17T07:17:55.701Z,2.00
2023-01-17T07:20:23.401Z,2.00
2023-01-17T07:22:51.128Z,2.00
2023-01-17T07:25:20.066Z,2.00
2023-01-17T07:27:47.904Z,2.10
2023-01-17T07:30:16.129Z,2.10
2023-01-17T07:32:43.821Z,2.10
2023-01-17T07:35:11.549Z,2.10
2023-01-17T07:37:39.392Z,2.20
2023-01-17T07:40:07.949Z,2.10
2023-01-17T07:42:35.661Z,2.10
2023-01-17T07:45:03.759Z,2.10
2023-01-17T07:47:33.507Z,2.10
2023-01-17T07:50:01.955Z,2.00
2023-01-17T07:52:29.796Z,2.00
2023-01-17T07:54:57.527Z,2.00
2023-01-17T07:57:25.248Z,2.00
2023-01-17T07:59:52.966Z,1.90
2023-01-17T08:02:23.699Z,1.90
2023-01-17T08:04:51.528Z,1.90
2023-01-17T08:07:19.413Z,1.90
2023-01-17T08:09:49.711Z,1.90
2023-01-17T08:12:17.827Z,1.90
2023-01-17T08:14:45.655Z,1.90
2023-01-17T08:17:16.504Z,2.00
2023-01-17T08:19:45.019Z,2.10
2023-01-17T08:22:12.784Z,2.10
2023-01-17T08:24:40.513Z,2.20
2023-01-17T08:27:09.186Z,2.20
2023-01-17T08:29:37.388Z,2.20
2023-01-17T08:32:05.355Z,2.20
2023-01-17T08:34:33.798Z,2.20
2023-01-17T08:37:01.541Z,2.30
2023-01-17T08:39:29.360Z,2.40
2023-01-17T08:41:57.486Z,2.50
2023-01-17T08:44:25.162Z,2.60
2023-01-17T08:46:52.892Z,2.60
2023-01-17T08:49:20.728Z,2.60
2023-01-17T08:51:48.568Z,2.70
2023-01-17T08:54:47.377Z,2.70
2023-01-17T08:57:15.093Z,2.80
2023-01-17T08:59:42.827Z,2.70
2023-01-17T09:02:20.629Z,2.80
2023-01-17T09:04:50.262Z,2.90
2023-01-17T09:07:20.513Z,3.00
2023-01-17T09:09:48.945Z,3.10
2023-01-17T09:12:16.688Z,3.10
2023-01-17T09:14:44.391Z,3.10
2023-01-17T09:17:14.450Z,3.20
2023-01-17T09:19:47.527Z,3.30
2023-01-17T09:22:15.759Z,3.30
2023-01-17T09:24:43.448Z,3.30
2023-01-17T09:27:11.167Z,3.40
2023-01-17T09:29:38.890Z,3.40
2023-01-17T09:32:06.618Z,3.40
2023-01-17T09:34:34.345Z,3.50
2023-01-17T09:37:02.053Z,3.50
2023-01-17T09:39:29.897Z,3.50
2023-01-17T09:42:17.299Z,3.60
2023-01-17T09:44:51.643Z,3.50
2023-01-17T09:47:47.550Z,3.50
2023-01-17T09:50:42.025Z,3.60
2023-01-17T09:53:22.591Z,3.60
2023-01-17T09:56:12.155Z,3.50
2023-01-17T09:58:54.874Z,3.50
2023-01-17T10:01:47.488Z,3.50
2023-01-17T10:04:36.522Z,3.60
2023-01-17T10:07:58.964Z,3.60
2023-01-17T10:10:42.286Z,3.60
2023-01-17T10:13:37.509Z,3.60
2023-01-17T10:16:35.835Z,3.60
2023-01-17T10:19:36.539Z,3.60
2023-01-17T10:22:49.497Z,3.70
2023-01-17T10:25:42.932Z,3.70
2023-01-17T10:28:24.190Z,3.80
2023-01-17T10:30:58.424Z,3.80
2023-01-17T10:33:35.828Z,3.90
2023-01-17T10:36:10.629Z,3.90
2023-01-17T10:38:41.967Z,4.00
2023-01-17T10:41:23.599Z,4.00
2023-01-17T10:44:37.463Z,4.00
2023-01-17T10:47:12.451Z,4.00
2023-01-17T10:49:46.645Z,3.90
2023-01-17T10:52:59.030Z,3.90
2023-01-17T10:56:00.809Z,4.00
2023-01-17T10:58:28.552Z,4.10
2023-01-17T11:01:07.495Z,4.10
2023-01-17T11:03:35.986Z,4.20
2023-01-17T11:06:25.072Z,4.30
2023-01-17T11:08:59.154Z,4.40
2023-01-17T11:11:34.067Z,4.50
2023-01-17T11:14:13.666Z,4.50
2023-01-17T11:16:41.628Z,4.60
2023-01-17T11:19:21.480Z,4.60
2023-01-17T11:21:57.651Z,4.70
2023-01-17T11:24:48.477Z,4.70
2023-01-17T11:27:33.493Z,4.80
2023-01-17T11:30:18.014Z,4.80
2023-01-17T11:33:45.785Z,4.80
2023-01-17T11:36:30.049Z,4.70
2023-01-17T11:39:04.835Z,4.60
2023-01-17T11:41:39.026Z,4.50
2023-01-17T11:44:33.621Z,4.50
2023-01-17T11:47:13.578Z,4.50
2023-01-17T11:49:44.901Z,4.40
2023-01-17T11:52:24.631Z,4.40
2023-01-17T11:54:55.257Z,4.60
2023-01-17T11:57:28.349Z,4.60
2023-01-17T12:00:19.367Z,4.70
2023-01-17T12:03:10.480Z,4.80
2023-01-17T12:06:22.843Z,4.90
2023-01-17T12:09:22.872Z,5.00
2023-01-17T12:12:51.411Z,5.00
2023-01-17T12:16:33.163Z,5.10
2023-01-17T12:19:18.896Z,5.10
2023-01-17T12:22:10.982Z,5.20
2023-01-17T12:24:53.339Z,5.20
2023-01-17T12:28:00.541Z,5.10
2023-01-17T12:31:10.788Z,5.10
2023-01-17T12:34:02.130Z,5.10
2023-01-17T12:36:39.939Z,5.00
2023-01-17T12:39:12.027Z,5.00
2023-01-17T12:42:08.717Z,5.00
2023-01-17T12:45:04.401Z,5.00
2023-01-17T12:47:37.768Z,5.10
2023-01-17T12:50:43.758Z,5.20
2023-01-17T12:53:26.723Z,5.20
2023-01-17T12:56:07.296Z,5.20
2023-01-17T12:58:44.734Z,5.20
2023-01-17T13:01:30.613Z,5.30
2023-01-17T13:04:16.790Z,5.30
2023-01-17T13:06:55.424Z,5.30
2023-01-17T13:09:24.100Z,5.30
2023-01-17T13:12:07.059Z,5.30
2023-01-17T13:14:34.793Z,5.40
2023-01-17T13:17:19.304Z,5.40
2023-01-17T13:19:56.994Z,5.40
2023-01-17T13:22:27.138Z,5.40
2023-01-17T13:25:23.176Z,5.40
2023-01-17T13:28:32.882Z,5.30
2023-01-17T13:31:21.673Z,5.30
2023-01-17T13:34:18.607Z,5.30
2023-01-17T13:37:13.815Z,5.30
2023-01-17T13:40:06.737Z,5.30
2023-01-17T13:42:59.656Z,5.30
2023-01-17T13:45:34.241Z,5.30
2023-01-17T13:48:17.172Z,5.20
2023-01-17T13:50:44.772Z,5.20
2023-01-17T13:53:33.976Z,5.10
2023-01-17T13:56:24.022Z,5.10
2023-01-17T13:58:54.408Z,5.10
2023-01-17T14:01:25.020Z,5.00
2023-01-17T14:03:52.867Z,4.90
2023-01-17T14:06:41.682Z,5.00
2023-01-17T14:09:30.287Z,4.90
2023-01-17T14:12:26.080Z,4.90
2023-01-17T14:14:56.687Z,4.90
2023-01-17T14:17:36.045Z,4.90
2023-01-17T14:20:09.528Z,4.90
2023-01-17T14:22:41.711Z,4.90
2023-01-17T14:25:19.770Z,4.90
2023-01-17T14:27:58.385Z,4.90
2023-01-17T14:30:44.820Z,4.90
2023-01-17T14:33:37.161Z,4.80
2023-01-17T14:36:23.221Z,4.80
2023-01-17T14:38:51.316Z,4.80
2023-01-17T14:41:26.714Z,4.80
2023-01-17T14:43:55.154Z,4.80
2023-01-17T14:46:31.157Z,4.80
2023-01-17T14:49:18.436Z,4.90
2023-01-17T14:52:03.681Z,4.80
2023-01-17T14:54:31.407Z,4.70
2023-01-17T14:57:35.489Z,4.70
2023-01-17T15:00:13.299Z,4.70
2023-01-17T15:02:44.051Z,4.60
2023-01-17T15:05:18.935Z,4.60
2023-01-17T15:07:53.052Z,4.60
2023-01-17T15:10:27.107Z,4.60
2023-01-17T15:12:59.022Z,4.60
2023-01-17T15:15:39.622Z,4.50
2023-01-17T15:18:19.434Z,4.50
2023-01-17T15:21:03.584Z,4.50
2023-01-17T15:23:38.301Z,4.40
2023-01-17T15:26:11.630Z,4.40
2023-01-17T15:28:40.072Z,4.30
2023-01-17T15:31:37.828Z,4.30
2023-01-17T15:34:25.084Z,4.20
2023-01-17T15:36:54.244Z,4.20
2023-01-17T15:39:24.962Z,4.20
2023-01-17T15:41:55.828Z,4.10
2023-01-17T15:44:52.762Z,4.20
2023-01-17T15:47:38.818Z,4.10
2023-01-17T15:50:26.414Z,4.00
2023-01-17T15:53:03.047Z,4.00
2023-01-17T15:55:39.380Z,4.00
2023-01-17T15:58:29.431Z,4.00
2023-01-17T16:00:57.503Z,4.00
2023-01-17T16:03:30.754Z,4.00
2023-01-17T16:06:01.121Z,4.00
2023-01-17T16:08:39.995Z,3.90
2023-01-17T16:11:10.754Z,3.90
2023-01-17T16:13:39.248Z,3.90
2023-01-17T16:16:26.826Z,3.80
2023-01-17T16:19:01.484Z,3.90
2023-01-17T16:21:31.737Z,3.80
2023-01-17T16:24:02.896Z,3.80
2023-01-17T16:26:30.769Z,3.80
2023-01-17T16:28:58.504Z,3.80
2023-01-17T16:31:26.320Z,3.70
2023-01-17T16:33:54.065Z,3.80
2023-01-17T16:36:23.107Z,3.80
2023-01-17T16:38:53.171Z,3.80
2023-01-17T16:41:21.441Z,3.80
2023-01-17T16:44:02.883Z,3.80
2023-01-17T16:46:31.097Z,3.90
2023-01-17T16:49:02.011Z,3.90
2023-01-17T16:51:29.950Z,3.80
2023-01-17T16:53:58.274Z,3.80
2023-01-17T16:56:26.118Z,3.80
2023-01-17T16:58:54.082Z,3.80
2023-01-17T17:01:22.926Z,3.70
2023-01-17T17:03:50.971Z,3.70
2023-01-17T17:06:19.175Z,3.70
2023-01-17T17:08:47.637Z,3.70
2023-01-17T17:11:19.782Z,3.70
2023-01-17T17:13:49.667Z,3.70
2023-01-17T17:16:29.884Z,3.70
2023-01-17T17:19:01.306Z,3.70
2023-01-17T17:21:31.904Z,3.60
2023-01-17T17:24:01.664Z,3.60
2023-01-17T17:26:37.069Z,3.60
2023-01-17T17:29:06.712Z,3.60
2023-01-17T17:31:34.453Z,3.70
2023-01-17T17:34:07.334Z,3.70
2023-01-17T17:36:36.238Z,3.70
2023-01-17T17:39:06.617Z,3.70
2023-01-17T17:41:36.618Z,3.80
2023-01-17T17:44:05.204Z,3.80
2023-01-17T17:46:33.820Z,3.80
2023-01-17T17:49:01.925Z,3.80
2023-01-17T17:51:39.857Z,3.80
2023-01-17T17:54:11.305Z,3.90
2023-01-17T17:56:40.219Z,3.90
2023-01-17T17:59:09.525Z,4.00
2023-01-17T18:01:41.149Z,4.00
2023-01-17T18:04:09.761Z,4.00
2023-01-17T18:06:38.683Z,4.00
2023-01-17T18:09:08.203Z,4.00
2023-01-17T18:11:38.313Z,3.90
2023-01-17T18:14:10.952Z,3.90
2023-01-17T18:16:42.641Z,3.80
2023-01-17T18:19:25.957Z,3.70
2023-01-17T18:21:54.415Z,3.70
2023-01-17T18:24:24.652Z,3.70
2023-01-17T18:26:56.938Z,3.60
2023-01-17T18:29:26.925Z,3.50
2023-01-17T18:31:55.756Z,3.40
2023-01-17T18:34:29.133Z,3.30
2023-01-17T18:36:57.915Z,3.30
2023-01-17T18:39:29.348Z,3.30
2023-01-17T18:41:58.383Z,3.20
2023-01-17T18:44:27.458Z,3.10
2023-01-17T18:47:01.875Z,3.10
2023-01-17T18:49:29.711Z,3.00
2023-01-17T18:51:57.546Z,2.90
2023-01-17T18:54:26.360Z,2.80
2023-01-17T18:56:55.757Z,2.80
2023-01-17T18:59:23.847Z,2.90
2023-01-17T19:01:52.219Z,2.90
2023-01-17T19:04:20.119Z,2.80
2023-01-17T19:06:49.043Z,2.80
2023-01-17T19:09:17.617Z,2.80
2023-01-17T19:11:47.293Z,2.60
2023-01-17T19:14:15.937Z,2.70
2023-01-17T19:16:44.372Z,2.70
2023-01-17T19:19:15.237Z,2.80
2023-01-17T19:21:43.417Z,2.80
2023-01-17T19:24:13.314Z,2.80
2023-01-17T19:26:42.992Z,2.80
2023-01-17T19:29:11.146Z,2.80
2023-01-17T19:31:42.793Z,2.70
2023-01-17T19:34:13.975Z,2.70
2023-01-17T19:36:42.358Z,2.60
2023-01-17T19:39:10.797Z,2.60
2023-01-17T19:41:44.874Z,2.60
2023-01-17T19:44:14.051Z,2.60
2023-01-17T19:46:42.127Z,2.60
2023-01-17T19:49:10.386Z,2.60
2023-01-17T19:51:39.641Z,2.60
2023-01-17T19:54:08.440Z,2.60
2023-01-17T19:56:36.756Z,2.70
2023-01-17T19:59:04.589Z,2.70
2023-01-17T20:01:34.276Z,2.80
2023-01-17T20:04:03.537Z,2.80
2023-01-17T20:06:35.188Z,2.70
2023-01-17T20:09:05.666Z,2.70
2023-01-17T20:11:33.622Z,2.80
2023-01-17T20:14:01.724Z,2.80
2023-01-17T20:16:32.030Z,2.80
2023-01-17T20:19:02.356Z,2.70
2023-01-17T20:21:31.847Z,2.70
2023-01-17T20:24:03.349Z,2.60
2023-01-17T20:26:35.134Z,2.60
2023-01-17T20:29:13.365Z,2.50
2023-01-17T20:31:43.066Z,2.50
2023-01-17T20:34:13.973Z,2.50
2023-01-17T20:36:42.548Z,2.60
2023-01-17T20:39:13.524Z,2.60
2023-01-17T20:41:43.896Z,2.60
2023-01-17T20:44:15.368Z,2.70
2023-01-17T20:46:43.760Z,2.80
2023-01-17T20:49:19.376Z,2.70
2023-01-17T20:51:47.717Z,2.70
2023-01-17T20:54:18.912Z,2.70
2023-01-17T20:56:47.805Z,2.70
2023-01-17T20:59:19.655Z,2.70
2023-01-17T21:01:48.673Z,2.70
2023-01-17T21:04:17.973Z,2.70
2023-01-17T21:06:45.816Z,2.80
2023-01-17T21:09:15.363Z,2.70
2023-01-17T21:11:43.426Z,2.70
2023-01-17T21:14:11.363Z,2.70
2023-01-17T21:16:40.002Z,2.70
2023-01-17T21:19:11.965Z,2.70
2023-01-17T21:21:40.191Z,2.70
2023-01-17T21:24:08.640Z,2.70
2023-01-17T21:26:38.766Z,2.70
2023-01-17T21:29:07.231Z,2.70
2023-01-17T21:31:36.748Z,2.70
2023-01-17T21:34:10.542Z,2.70
2023-01-17T21:36:41.297Z,2.70
2023-01-17T21:39:15.888Z,2.70
2023-01-17T21:41:47.888Z,2.70
2023-01-17T21:44:22.920Z,2.70
2023-01-17T21:46:56.296Z,2.60
2023-01-17T21:49:24.487Z,2.70
2023-01-17T21:51:54.961Z,2.70
2023-01-17T21:54:46.946Z,2.70
2023-01-17T21:57:39.490Z,2.70
2023-01-17T22:00:14.591Z,2.70
2023-01-17T22:02:47.729Z,2.70
2023-01-17T22:05:19.597Z,2.60
2023-01-17T22:08:06.259Z,2.60
2023-01-17T22:10:44.520Z,2.60
2023-01-17T22:13:19.109Z,2.60
2023-01-17T22:16:01.405Z,2.60
2023-01-17T22:18:29.902Z,2.60
2023-01-17T22:20:57.872Z,2.60
2023-01-17T22:23:25.738Z,2.60
2023-01-17T22:25:53.433Z,2.60
2023-01-17T22:28:21.280Z,2.60
2023-01-17T22:30:49.036Z,2.60
2023-01-17T22:33:16.725Z,2.60
2023-01-17T22:35:44.569Z,2.60
2023-01-17T22:38:12.292Z,2.60
2023-01-17T22:40:40.129Z,2.50
2023-01-17T22:43:07.972Z,2.50
2023-01-17T22:45:35.811Z,2.40
2023-01-17T22:48:03.894Z,2.40
2023-01-17T22:50:31.618Z,2.40
2023-01-17T22:52:59.474Z,2.40
2023-01-17T22:55:27.549Z,2.40
2023-01-17T22:57:55.625Z,2.30
2023-01-17T23:00:23.467Z,2.20
2023-01-17T23:02:51.258Z,2.20
2023-01-17T23:05:19.034Z,2.20
2023-01-17T23:07:50.485Z,2.20
2023-01-17T23:10:38.363Z,2.20
2023-01-17T23:13:10.407Z,2.20
2023-01-17T23:15:57.605Z,2.20
2023-01-17T23:18:43.763Z,2.10
2023-01-17T23:21:11.492Z,2.00
2023-01-17T23:23:39.342Z,1.90
2023-01-17T23:26:07.172Z,1.90
2023-01-17T23:28:35.138Z,1.90
2023-01-17T23:31:04.835Z,1.90
2023-01-17T23:33:32.740Z,2.00
2023-01-17T23:36:00.465Z,2.00
2023-01-17T23:38:33.918Z,2.00
2023-01-17T23:41:24.853Z,2.00
2023-01-17T23:43:57.736Z,2.00
2023-01-17T23:46:27.172Z,2.10
2023-01-17T23:48:55.241Z,2.10
2023-01-17T23:51:23.165Z,2.10
2023-01-17T23:53:55.210Z,2.00
2023-01-17T23:56:24.623Z,1.90
2023-01-17T23:58:52.335Z,1.90
